createdAt,value
2019-05-10T00:01:12.270Z,0.90
2019-05-10T00:04:01.706Z,1.03
2019-05-10T00:06:50.989Z,0.80
2019-05-10T00:09:21.771Z,0.87
2019-05-10T00:12:03.922Z,0.70
2019-05-10T00:14:47.935Z,0.80
2019-05-10T00:17:21.234Z,1.10
2019-05-10T00:19:52.966Z,0.77
2019-05-10T00:22:24.998Z,0.87
2019-05-10T00:25:03.997Z,0.80
2019-05-10T00:27:29.767Z,0.80
2019-05-10T00:30:01.156Z,0.90
2019-05-10T00:32:33.946Z,0.90
2019-05-10T00:35:06.051Z,0.90
2019-05-10T00:37:37.508Z,0.70
2019-05-10T00:40:09.439Z,0.90
2019-05-10T00:42:40.721Z,0.77
2019-05-10T00:45:12.426Z,0.83
2019-05-10T00:47:43.928Z,0.80
2019-05-10T00:50:15.747Z,1.00
2019-05-10T00:52:47.081Z,0.80
2019-05-10T00:55:19.512Z,0.80
2019-05-10T00:57:51.153Z,1.00
2019-05-10T01:00:22.666Z,1.17
2019-05-10T01:02:54.437Z,1.00
2019-05-10T01:05:25.817Z,1.00
2019-05-10T01:07:57.258Z,1.20
2019-05-10T01:10:29.069Z,1.20
2019-05-10T01:13:00.426Z,1.30
2019-05-10T01:15:31.886Z,1.30
2019-05-10T01:18:03.252Z,1.20
2019-05-10T01:20:34.775Z,1.03
2019-05-10T01:23:06.227Z,1.40
2019-05-10T01:25:37.975Z,1.70
2019-05-10T01:28:09.381Z,1.20
2019-05-10T01:30:41.037Z,1.23
2019-05-10T01:33:12.427Z,1.30
2019-05-10T01:35:44.947Z,1.20
2019-05-10T01:38:16.389Z,1.30
2019-05-10T01:40:48.100Z,1.00
2019-05-10T01:43:19.991Z,1.20
2019-05-10T01:45:51.490Z,0.93
2019-05-10T01:48:22.831Z,1.10
2019-05-10T01:50:54.278Z,1.17
2019-05-10T01:53:26.104Z,1.30
2019-05-10T01:55:57.558Z,1.13
2019-05-10T01:58:28.994Z,1.10
2019-05-10T02:01:00.394Z,1.00
2019-05-10T02:03:31.842Z,1.40
2019-05-10T02:06:03.604Z,1.10
2019-05-10T02:08:35.012Z,1.10
2019-05-10T02:11:06.575Z,1.40
2019-05-10T02:13:38.733Z,1.37
2019-05-10T02:16:10.088Z,1.30
2019-05-10T02:18:41.638Z,1.23
2019-05-10T02:21:13.057Z,1.20
2019-05-10T02:23:44.596Z,1.40
2019-05-10T02:26:15.941Z,1.30
2019-05-10T02:28:47.204Z,1.60
2019-05-10T02:31:21.605Z,1.23
2019-05-10T02:33:51.637Z,1.53
2019-05-10T02:36:23.318Z,1.50
2019-05-10T02:38:54.738Z,1.43
2019-05-10T02:41:26.110Z,1.50
2019-05-10T02:43:57.452Z,1.50
2019-05-10T02:46:28.881Z,1.40
2019-05-10T02:49:00.160Z,1.40
2019-05-10T02:51:31.542Z,1.30
2019-05-10T02:54:03.230Z,1.87
2019-05-10T02:56:36.566Z,1.30
2019-05-10T02:59:10.026Z,1.30
2019-05-10T03:01:46.566Z,1.50
2019-05-10T03:04:18.064Z,1.20
2019-05-10T03:06:54.121Z,1.20
2019-05-10T03:09:30.334Z,1.30
2019-05-10T03:12:26.056Z,1.40
2019-05-10T03:14:59.952Z,1.47
2019-05-10T03:17:31.489Z,1.80
2019-05-10T03:20:03.561Z,1.70
2019-05-10T03:22:43.554Z,1.90
2019-05-10T03:25:15.973Z,1.90
2019-05-10T03:27:47.630Z,1.80
2019-05-10T03:30:19.110Z,1.90
2019-05-10T03:32:51.191Z,2.00
2019-05-10T03:35:22.495Z,2.20
2019-05-10T03:37:54.316Z,2.20
2019-05-10T03:40:27.080Z,2.17
2019-05-10T03:42:58.802Z,2.20
2019-05-10T03:45:30.184Z,2.13
2019-05-10T03:48:01.836Z,2.60
2019-05-10T03:50:33.428Z,2.40
2019-05-10T03:53:05.215Z,2.53
2019-05-10T03:55:36.524Z,2.80
2019-05-10T03:58:07.986Z,2.53
2019-05-10T04:00:39.253Z,2.53
2019-05-10T04:03:10.614Z,2.40
2019-05-10T04:05:42.097Z,2.40
2019-05-10T04:08:13.792Z,2.80
2019-05-10T04:10:45.239Z,2.80
2019-05-10T04:13:16.672Z,2.77
2019-05-10T04:15:48.064Z,2.53
2019-05-10T04:18:19.278Z,2.90
2019-05-10T04:20:51.573Z,2.60
2019-05-10T04:23:22.998Z,2.90
2019-05-10T04:25:54.431Z,2.70
2019-05-10T04:28:25.906Z,2.90
2019-05-10T04:30:57.353Z,2.83
2019-05-10T04:33:28.629Z,3.00
2019-05-10T04:36:00.221Z,2.77
2019-05-10T04:38:31.534Z,3.10
2019-05-10T04:41:03.245Z,3.00
2019-05-10T04:43:34.849Z,3.47
2019-05-10T04:46:06.591Z,2.90
2019-05-10T04:48:37.831Z,3.70
2019-05-10T04:51:09.172Z,3.57
2019-05-10T04:53:40.724Z,3.40
2019-05-10T04:56:12.010Z,2.90
2019-05-10T04:58:43.286Z,2.70
2019-05-10T05:01:15.088Z,2.40
2019-05-10T05:03:46.533Z,2.70
2019-05-10T05:06:17.870Z,2.87
2019-05-10T05:08:49.573Z,2.70
2019-05-10T05:11:20.971Z,2.63
2019-05-10T05:13:52.316Z,2.60
2019-05-10T05:16:23.879Z,3.50
2019-05-10T05:18:55.286Z,3.80
2019-05-10T05:21:27.062Z,3.43
2019-05-10T05:23:58.514Z,3.00
2019-05-10T05:26:29.786Z,3.10
2019-05-10T05:29:01.085Z,3.87
2019-05-10T05:31:32.349Z,3.30
2019-05-10T05:34:04.809Z,2.70
2019-05-10T05:36:37.626Z,2.80
2019-05-10T05:39:09.667Z,3.80
2019-05-10T05:41:49.289Z,3.73
2019-05-10T05:44:13.999Z,3.63
2019-05-10T05:46:45.275Z,2.80
2019-05-10T05:49:16.640Z,3.70
2019-05-10T05:51:48.091Z,3.13
2019-05-10T05:54:20.791Z,3.17
2019-05-10T05:56:53.095Z,3.23
2019-05-10T05:59:26.274Z,3.13
2019-05-10T06:02:00.594Z,2.90
2019-05-10T06:04:31.088Z,2.87
2019-05-10T06:07:02.285Z,3.00
2019-05-10T06:09:37.812Z,3.13
2019-05-10T06:12:07.578Z,2.80
2019-05-10T06:14:43.249Z,2.97
2019-05-10T06:17:13.203Z,2.87
2019-05-10T06:19:44.766Z,3.00
2019-05-10T06:22:16.615Z,2.70
2019-05-10T06:24:52.371Z,3.20
2019-05-10T06:27:21.410Z,3.00
2019-05-10T06:29:52.837Z,2.73
2019-05-10T06:32:24.402Z,2.90
2019-05-10T06:34:55.843Z,2.57
2019-05-10T06:37:30.913Z,2.43
2019-05-10T06:40:01.040Z,2.73
2019-05-10T06:42:34.701Z,2.53
2019-05-10T06:45:14.147Z,2.70
2019-05-10T06:47:41.974Z,2.80
2019-05-10T06:50:13.119Z,3.00
2019-05-10T06:52:44.740Z,2.90
2019-05-10T06:55:16.188Z,2.83
2019-05-10T06:57:50.547Z,2.77
2019-05-10T07:00:21.388Z,2.50
2019-05-10T07:02:53.165Z,2.40
2019-05-10T07:05:24.532Z,2.37
2019-05-10T07:07:59.986Z,2.50
2019-05-10T07:10:33.731Z,2.93
2019-05-10T07:13:03.537Z,2.47
2019-05-10T07:15:42.206Z,2.50
2019-05-10T07:18:08.700Z,2.40
2019-05-10T07:20:43.088Z,2.60
2019-05-10T07:23:13.211Z,2.43
2019-05-10T07:25:46.787Z,2.40
2019-05-10T07:28:17.865Z,2.43
2019-05-10T07:30:49.278Z,2.30
2019-05-10T07:33:20.679Z,2.33
2019-05-10T07:35:52.449Z,2.00
2019-05-10T07:38:31.017Z,2.33
2019-05-10T07:40:57.224Z,2.23
2019-05-10T07:43:29.660Z,2.40
2019-05-10T07:46:06.183Z,2.43
2019-05-10T07:48:35.542Z,2.50
2019-05-10T07:51:07.177Z,2.40
2019-05-10T07:53:38.519Z,2.30
2019-05-10T07:56:09.833Z,2.47
2019-05-10T07:58:43.189Z,2.70
2019-05-10T08:01:14.440Z,2.20
2019-05-10T08:03:51.764Z,2.10
2019-05-10T08:06:19.390Z,2.20
2019-05-10T08:08:55.545Z,2.20
2019-05-10T08:11:24.145Z,2.03
2019-05-10T08:13:59.754Z,1.87
2019-05-10T08:16:29.073Z,2.07
2019-05-10T08:19:02.373Z,2.17
2019-05-10T08:21:35.033Z,2.30
2019-05-10T08:24:13.331Z,2.40
2019-05-10T08:26:42.570Z,2.50
2019-05-10T08:29:16.944Z,2.37
2019-05-10T08:31:52.869Z,2.70
2019-05-10T08:34:22.510Z,2.60
2019-05-10T08:36:53.102Z,2.80
2019-05-10T08:39:24.539Z,2.40
2019-05-10T08:42:03.945Z,2.07
2019-05-10T08:44:29.039Z,2.30
2019-05-10T08:47:02.289Z,1.93
2019-05-10T08:49:43.595Z,2.20
2019-05-10T08:52:07.214Z,2.20
2019-05-10T08:54:38.612Z,2.10
2019-05-10T09:00:03.285Z,2.47
2019-05-10T09:02:32.923Z,2.20
2019-05-10T09:05:04.561Z,2.17
2019-05-10T09:07:38.992Z,2.17
2019-05-10T09:10:12.555Z,2.20
2019-05-10T09:12:51.242Z,2.33
2019-05-10T09:15:16.718Z,2.40
2019-05-10T09:17:49.057Z,2.50
2019-05-10T09:20:25.913Z,2.00
2019-05-10T09:22:53.837Z,2.20
2019-05-10T09:25:29.712Z,2.33
2019-05-10T09:28:02.292Z,2.23
2019-05-10T09:30:36.810Z,2.40
2019-05-10T09:33:10.341Z,2.50
2019-05-10T09:35:47.052Z,2.50
2019-05-10T09:38:15.037Z,2.30
2019-05-10T09:40:53.017Z,2.20
2019-05-10T09:43:23.613Z,1.97
2019-05-10T09:45:53.251Z,1.90
2019-05-10T09:48:24.608Z,1.90
2019-05-10T09:51:00.190Z,2.30
2019-05-10T09:53:30.497Z,2.10
2019-05-10T09:56:03.354Z,2.20
2019-05-10T09:58:35.204Z,2.10
2019-05-10T10:01:14.794Z,2.00
2019-05-10T10:03:43.725Z,1.87
2019-05-10T10:06:13.274Z,1.90
2019-05-10T10:08:50.493Z,1.90
2019-05-10T10:11:18.712Z,2.17
2019-05-10T10:13:59.119Z,2.10
2019-05-10T10:16:23.749Z,2.00
2019-05-10T10:18:55.198Z,2.20
2019-05-10T10:21:35.015Z,2.30
2019-05-10T10:24:00.355Z,1.87
2019-05-10T10:26:32.159Z,1.83
2019-05-10T10:29:03.536Z,1.70
2019-05-10T10:31:48.260Z,1.60
2019-05-10T10:34:08.183Z,1.70
2019-05-10T10:36:43.717Z,1.97
2019-05-10T10:39:14.033Z,1.70
2019-05-10T10:41:45.567Z,1.90
2019-05-10T10:44:18.206Z,1.90
2019-05-10T10:46:49.738Z,2.10
2019-05-10T10:49:23.219Z,1.97
2019-05-10T10:51:54.094Z,2.37
2019-05-10T10:54:28.631Z,2.37
2019-05-10T10:56:59.681Z,2.20
2019-05-10T10:59:30.983Z,2.50
2019-05-10T11:02:30.879Z,2.50
2019-05-10T11:04:40.629Z,2.27
2019-05-10T11:07:10.912Z,2.50
2019-05-10T11:09:41.657Z,2.03
2019-05-10T11:12:14.637Z,2.00
2019-05-10T11:14:46.959Z,1.80
2019-05-10T11:17:18.244Z,1.60
2019-05-10T11:19:49.449Z,1.90
2019-05-10T11:22:21.495Z,2.10
2019-05-10T11:25:01.354Z,2.00
2019-05-10T11:27:26.042Z,2.00
2019-05-10T11:29:57.463Z,1.80
2019-05-10T11:32:31.331Z,2.23
2019-05-10T11:35:05.240Z,2.00
2019-05-10T11:37:36.344Z,2.40
2019-05-10T11:40:11.160Z,2.13
2019-05-10T11:42:47.070Z,2.50
2019-05-10T11:45:17.094Z,1.90
2019-05-10T11:47:54.450Z,1.90
2019-05-10T11:52:55.574Z,1.90
2019-05-10T11:55:27.026Z,1.93
2019-05-10T11:58:03.002Z,1.90
2019-05-10T11:59:05.018Z,1.73
2019-05-10T12:00:34.231Z,1.70
2019-05-10T12:03:11.220Z,1.83
2019-05-10T12:05:37.850Z,1.77
2019-05-10T12:08:12.686Z,1.80
2019-05-10T12:10:52.268Z,1.77
2019-05-10T12:15:51.762Z,1.80
2019-05-10T12:18:26.788Z,1.60
2019-05-10T12:21:08.024Z,1.90
2019-05-10T12:23:31.306Z,1.90
2019-05-10T12:26:18.021Z,1.63
2019-05-10T12:27:12.579Z,2.30
2019-05-10T12:28:35.813Z,2.30
2019-05-10T12:31:15.643Z,2.40
2019-05-10T12:33:45.057Z,2.90
2019-05-10T12:36:23.605Z,3.60
2019-05-10T12:38:47.219Z,2.40
2019-05-10T12:41:23.186Z,2.67
2019-05-10T12:44:02.744Z,4.70
2019-05-10T12:46:25.660Z,2.43
2019-05-10T12:48:57.363Z,2.40
2019-05-10T12:51:31.158Z,2.50
2019-05-10T12:54:01.738Z,2.50
2019-05-10T12:56:34.952Z,2.50
2019-05-10T12:59:06.472Z,2.60
2019-05-10T13:01:37.753Z,2.80
2019-05-10T13:04:14.891Z,2.13
2019-05-10T13:06:42.212Z,2.20
2019-05-10T13:09:13.875Z,2.50
2019-05-10T13:11:45.505Z,3.57
2019-05-10T13:14:16.881Z,2.70
2019-05-10T13:16:48.725Z,2.30
2019-05-10T13:19:21.655Z,1.77
2019-05-10T13:21:53.762Z,0.80
2019-05-10T13:24:26.172Z,1.00
2019-05-10T13:26:57.458Z,1.17
2019-05-10T13:29:28.851Z,1.80
2019-05-10T13:32:00.553Z,2.10
2019-05-10T13:34:32.329Z,2.40
2019-05-10T13:37:05.093Z,2.20
2019-05-10T13:39:36.789Z,2.37
2019-05-10T13:42:09.701Z,2.63
2019-05-10T13:44:43.103Z,2.60
2019-05-10T13:47:14.180Z,2.50
2019-05-10T13:49:48.686Z,2.60
2019-05-10T13:52:18.717Z,2.40
2019-05-10T13:54:50.073Z,2.80
2019-05-10T13:57:21.549Z,2.73
2019-05-10T13:59:55.020Z,2.87
2019-05-10T14:02:32.623Z,2.70
2019-05-10T14:05:00.716Z,2.77
2019-05-10T14:07:32.066Z,2.90
2019-05-10T14:10:03.613Z,3.07
2019-05-10T14:12:35.139Z,2.90
2019-05-10T14:15:12.904Z,2.97
2019-05-10T14:17:41.430Z,3.30
2019-05-10T14:20:19.503Z,3.00
2019-05-10T14:22:48.540Z,3.07
2019-05-10T14:25:19.322Z,2.47
2019-05-10T14:27:50.786Z,2.00
2019-05-10T14:30:22.346Z,2.20
2019-05-10T14:32:53.702Z,1.90
2019-05-10T14:35:25.190Z,1.90
2019-05-10T14:38:07.156Z,2.10
2019-05-10T14:40:30.852Z,2.00
2019-05-10T14:43:02.715Z,2.00
2019-05-10T14:45:34.571Z,1.70
2019-05-10T14:48:06.341Z,2.30
2019-05-10T14:50:39.043Z,2.00
2019-05-10T14:53:10.249Z,1.70
2019-05-10T14:55:41.598Z,1.70
2019-05-10T14:58:13.077Z,2.03
2019-05-10T15:00:44.558Z,4.97
2019-05-10T15:03:16.242Z,2.83
2019-05-10T15:05:48.928Z,2.33
2019-05-10T15:08:21.026Z,1.93
2019-05-10T15:10:52.382Z,2.57
2019-05-10T15:13:25.920Z,2.53
2019-05-10T15:15:56.577Z,2.70
2019-05-10T15:18:28.113Z,2.43
2019-05-10T15:20:59.817Z,2.50
2019-05-10T15:23:31.058Z,2.80
2019-05-10T15:26:10.488Z,3.20
2019-05-10T15:28:40.517Z,3.17
2019-05-10T15:31:09.179Z,3.40
2019-05-10T15:33:41.210Z,3.50
2019-05-10T15:36:12.528Z,5.57
2019-05-10T15:38:49.759Z,2.90
2019-05-10T15:41:22.341Z,2.57
2019-05-10T15:43:53.596Z,5.53
2019-05-10T15:46:29.081Z,3.17
2019-05-10T15:48:57.901Z,2.90
2019-05-10T15:51:36.107Z,2.80
2019-05-10T15:54:04.902Z,3.20
2019-05-10T15:56:40.619Z,3.40
2019-05-10T15:59:12.705Z,2.90
2019-05-10T16:01:45.126Z,5.00
2019-05-10T16:04:15.138Z,3.43
2019-05-10T16:06:46.552Z,2.90
2019-05-10T16:09:19.359Z,2.43
2019-05-10T16:11:55.959Z,2.60
2019-05-10T16:14:24.240Z,2.57
2019-05-10T16:16:55.599Z,2.37
2019-05-10T16:19:27.012Z,2.93
2019-05-10T16:21:58.438Z,2.60
2019-05-10T16:24:30.189Z,3.80
2019-05-10T16:27:01.921Z,2.50
2019-05-10T16:29:39.329Z,2.73
2019-05-10T16:32:06.478Z,3.03
2019-05-10T16:34:37.695Z,2.50
2019-05-10T16:37:10.523Z,3.07
2019-05-10T16:39:41.881Z,2.50
2019-05-10T16:42:13.251Z,2.20
2019-05-10T16:44:44.503Z,2.30
2019-05-10T16:47:16.322Z,2.50
2019-05-10T16:49:53.190Z,2.73
2019-05-10T16:52:25.825Z,2.53
2019-05-10T16:54:58.044Z,2.80
2019-05-10T16:57:31.903Z,2.50
2019-05-10T17:00:02.277Z,2.70
2019-05-10T17:02:40.067Z,2.80
2019-05-10T17:05:09.600Z,2.60
2019-05-10T17:07:42.403Z,2.80
2019-05-10T17:10:15.357Z,2.60
2019-05-10T17:12:46.708Z,2.50
2019-05-10T17:15:18.344Z,2.57
2019-05-10T17:17:50.694Z,2.40
2019-05-10T17:20:22.384Z,3.40
2019-05-10T17:22:53.812Z,4.50
2019-05-10T17:25:25.955Z,5.33
2019-05-10T17:27:59.794Z,3.80
2019-05-10T17:30:30.472Z,3.00
2019-05-10T17:33:04.100Z,6.73
2019-05-10T17:35:36.588Z,4.60
2019-05-10T17:38:13.912Z,6.50
2019-05-10T17:40:42.220Z,6.47
2019-05-10T17:43:20.440Z,3.67
2019-05-10T17:45:47.303Z,4.57
2019-05-10T17:48:19.852Z,4.03
2019-05-10T17:50:51.455Z,4.73
2019-05-10T17:53:23.439Z,3.83
2019-05-10T17:55:56.605Z,5.70
2019-05-10T17:58:33.675Z,4.87
2019-05-10T18:01:02.068Z,4.73
2019-05-10T18:03:33.405Z,4.60
2019-05-10T18:06:05.419Z,3.93
2019-05-10T18:08:36.932Z,4.50
2019-05-10T18:11:08.455Z,6.40
2019-05-10T18:13:40.886Z,6.10
2019-05-10T18:16:13.560Z,5.20
2019-05-10T18:18:47.236Z,5.87
2019-05-10T18:21:21.832Z,5.73
2019-05-10T18:23:52.637Z,6.53
2019-05-10T18:26:24.240Z,5.77
2019-05-10T18:28:55.543Z,5.83
2019-05-10T18:31:26.751Z,5.63
2019-05-10T18:33:58.433Z,6.00
2019-05-10T18:36:50.634Z,6.10
2019-05-10T18:39:09.252Z,6.17
2019-05-10T18:41:46.565Z,7.07
2019-05-10T18:44:16.085Z,7.27
2019-05-10T18:46:47.431Z,8.37
2019-05-10T18:49:19.498Z,7.70
2019-05-10T18:51:50.771Z,8.30
2019-05-10T18:54:21.988Z,8.97
2019-05-10T18:56:53.405Z,7.60
2019-05-10T18:59:25.201Z,6.50
2019-05-10T19:01:57.163Z,6.43
2019-05-10T19:04:28.942Z,5.67
2019-05-10T19:07:09.758Z,5.97
2019-05-10T19:09:34.145Z,5.97
2019-05-10T19:12:05.991Z,5.77
2019-05-10T19:14:38.544Z,5.60
2019-05-10T19:17:11.120Z,5.07
2019-05-10T19:19:43.736Z,5.33
2019-05-10T19:22:14.941Z,5.90
2019-05-10T19:24:47.725Z,5.83
2019-05-10T19:27:18.957Z,6.10
2019-05-10T19:29:50.797Z,5.73
2019-05-10T19:32:22.146Z,5.30
2019-05-10T19:34:57.637Z,5.20
2019-05-10T19:37:33.829Z,4.80
2019-05-10T19:40:01.139Z,6.17
2019-05-10T19:42:37.189Z,10.23
2019-05-10T19:45:12.802Z,6.10
2019-05-10T19:47:42.584Z,4.13
2019-05-10T19:50:14.225Z,3.73
2019-05-10T19:52:45.897Z,3.17
2019-05-10T19:55:19.587Z,3.50
2019-05-10T19:57:54.676Z,3.63
2019-05-10T20:00:25.903Z,3.00
2019-05-10T20:02:57.425Z,3.00
2019-05-10T20:05:28.794Z,2.90
2019-05-10T20:08:00.295Z,2.60
2019-05-10T20:10:32.052Z,2.30
2019-05-10T20:13:03.412Z,2.40
2019-05-10T20:15:34.953Z,2.70
2019-05-10T20:18:07.125Z,2.53
2019-05-10T20:20:38.722Z,2.57
2019-05-10T20:23:10.394Z,2.67
2019-05-10T20:25:41.928Z,2.70
2019-05-10T20:28:13.371Z,2.80
2019-05-10T20:30:44.753Z,2.93
2019-05-10T20:33:16.221Z,2.93
2019-05-10T20:35:47.686Z,2.93
2019-05-10T20:38:19.496Z,2.93
2019-05-10T20:40:51.907Z,2.53
2019-05-10T20:43:23.096Z,2.90
2019-05-10T20:45:54.543Z,3.00
2019-05-10T20:48:25.916Z,3.07
2019-05-10T20:50:57.563Z,2.83
2019-05-10T20:53:28.850Z,3.40
2019-05-10T20:56:00.452Z,4.13
2019-05-10T20:58:32.061Z,4.10
2019-05-10T21:01:03.484Z,3.77
2019-05-10T21:03:34.931Z,4.40
2019-05-10T21:06:06.661Z,4.37
2019-05-10T21:08:38.005Z,4.83
2019-05-10T21:11:09.308Z,5.57
2019-05-10T21:13:40.652Z,5.40
2019-05-10T21:16:13.069Z,5.47
2019-05-10T21:18:44.325Z,6.03
2019-05-10T21:21:15.802Z,5.10
2019-05-10T21:23:47.033Z,4.70
2019-05-10T21:26:18.327Z,4.63
2019-05-10T21:28:50.584Z,4.23
2019-05-10T21:31:22.021Z,4.50
2019-05-10T21:34:08.256Z,4.20
2019-05-10T21:36:26.409Z,4.97
2019-05-10T21:38:57.801Z,4.90
2019-05-10T21:41:29.427Z,4.23
2019-05-10T21:44:01.164Z,4.00
2019-05-10T21:46:32.599Z,4.07
2019-05-10T21:49:04.006Z,4.10
2019-05-10T21:51:35.491Z,3.80
2019-05-10T21:54:07.010Z,4.40
2019-05-10T21:56:38.544Z,4.50
2019-05-10T21:59:10.140Z,4.27
2019-05-10T22:01:41.561Z,4.10
2019-05-10T22:04:13.032Z,4.40
2019-05-10T22:06:44.860Z,3.93
2019-05-10T22:09:16.327Z,4.40
2019-05-10T22:11:47.760Z,4.57
2019-05-10T22:14:19.730Z,5.07
2019-05-10T22:16:54.411Z,4.70
2019-05-10T22:19:25.667Z,5.53
2019-05-10T22:21:57.679Z,6.03
2019-05-10T22:24:29.317Z,5.40
2019-05-10T22:27:00.942Z,5.30
2019-05-10T22:29:32.402Z,4.97
2019-05-10T22:32:03.872Z,5.40
2019-05-10T22:34:35.673Z,5.60
2019-05-10T22:37:07.060Z,5.23
2019-05-10T22:39:38.616Z,4.77
2019-05-10T22:42:10.447Z,4.70
2019-05-10T22:44:41.859Z,4.80
2019-05-10T22:47:13.638Z,4.67
2019-05-10T22:49:46.163Z,4.67
2019-05-10T22:52:17.972Z,4.87
2019-05-10T22:54:49.393Z,4.40
2019-05-10T22:57:20.906Z,4.70
2019-05-10T22:59:52.156Z,4.90
2019-05-10T23:02:23.904Z,5.10
2019-05-10T23:04:55.213Z,6.00
2019-05-10T23:07:26.979Z,6.67
2019-05-10T23:09:58.439Z,6.67
2019-05-10T23:12:29.842Z,6.97
2019-05-10T23:15:01.070Z,6.30
2019-05-10T23:17:34.219Z,6.73
2019-05-10T23:20:05.926Z,7.00
2019-05-10T23:22:37.262Z,6.90
2019-05-10T23:25:08.929Z,7.40
2019-05-10T23:27:40.315Z,7.73
2019-05-10T23:30:12.674Z,7.37
2019-05-10T23:32:44.002Z,7.33
2019-05-10T23:35:15.479Z,6.97
2019-05-10T23:37:46.875Z,7.10
2019-05-10T23:40:18.690Z,6.77
2019-05-10T23:42:50.103Z,6.97
2019-05-10T23:45:21.901Z,7.73
2019-05-10T23:47:53.237Z,7.73
2019-05-10T23:50:24.713Z,7.93
2019-05-10T23:52:56.681Z,7.37
2019-05-10T23:55:28.099Z,7.33
2019-05-10T23:57:59.477Z,7.70
